Prather, California
Current Conditions -  °F | °C
As of 7:09 AM on Sunday 21 Dec 2014 (Local Time) from KFAT Reporting Station
Moderate Fog Moderate Fog  
Wind Chill: 46°   Ceiling: 400
Heat Index: 46°   Visibility: 0.25mi
Dew Point: 45°   Wind: 0mph
Humidity: 96%   Direction: NA
Pressure: 30.29"   Gusts: NA
Location:  37.04°N, 119.51°W
Report Text: KFAT 211509Z 00000KT 1/4SM R29R/1600V2200FT FG VV004 08/07 A3029 RMK AO2 T00780072
Loading
Personal Weather Stations






























Interactive Weather Map New forecast layout! Learn more

10-Day Weather Forecast

Advertisements
Track Severe Weather on mobile